createdAt,value
2023-06-19T00:01:12.783Z,37.22
2023-06-19T00:03:40.187Z,37.07
2023-06-19T00:06:08.164Z,37.33
2023-06-19T00:08:37.144Z,37.37
2023-06-19T00:11:04.559Z,37.73
2023-06-19T00:13:34.341Z,38.16
2023-06-19T00:16:02.150Z,38.21
2023-06-19T00:18:30.123Z,38.52
2023-06-19T00:20:58.065Z,38.05
2023-06-19T00:23:25.454Z,38.41
2023-06-19T00:25:52.876Z,38.32
2023-06-19T00:28:21.363Z,38.31
2023-06-19T00:30:49.094Z,38.43
2023-06-19T00:33:16.448Z,38.45
2023-06-19T00:35:44.314Z,38.31
2023-06-19T00:38:11.813Z,38.34
2023-06-19T00:40:39.667Z,38.29
2023-06-19T00:43:07.634Z,38.00
2023-06-19T00:45:35.283Z,38.17
2023-06-19T00:48:03.104Z,37.82
2023-06-19T00:50:31.573Z,37.67
2023-06-19T00:53:00.914Z,37.73
2023-06-19T00:55:33.675Z,37.73
2023-06-19T00:58:02.277Z,37.80
2023-06-19T01:00:29.958Z,37.66
2023-06-19T01:02:59.515Z,37.44
2023-06-19T01:05:29.260Z,37.60
2023-06-19T01:08:16.064Z,37.56
2023-06-19T01:10:49.063Z,37.57
2023-06-19T01:14:01.424Z,37.36
2023-06-19T01:16:30.367Z,37.34
2023-06-19T01:18:57.817Z,37.21
2023-06-19T01:21:25.233Z,37.20
2023-06-19T01:23:52.672Z,36.80
2023-06-19T01:26:27.718Z,36.76
2023-06-19T01:28:56.275Z,36.61
2023-06-19T01:31:30.071Z,36.62
2023-06-19T01:33:57.811Z,36.76
2023-06-19T01:36:26.130Z,36.64
2023-06-19T01:38:56.841Z,36.27
2023-06-19T01:41:26.059Z,36.33
2023-06-19T01:43:54.507Z,36.08
2023-06-19T01:46:21.989Z,36.33
2023-06-19T01:48:49.422Z,36.59
2023-06-19T01:51:17.782Z,36.39
2023-06-19T01:53:45.105Z,36.89
2023-06-19T01:56:12.990Z,36.99
2023-06-19T01:58:40.320Z,37.32
2023-06-19T02:01:07.690Z,37.26
2023-06-19T02:03:35.129Z,37.66
2023-06-19T02:06:02.685Z,37.80
2023-06-19T02:08:30.037Z,38.03
2023-06-19T02:10:57.336Z,38.05
2023-06-19T02:13:24.841Z,38.37
2023-06-19T02:15:52.768Z,38.26
2023-06-19T02:18:20.330Z,38.20
2023-06-19T02:20:47.855Z,37.98
2023-06-19T02:23:16.686Z,37.97
2023-06-19T02:25:44.060Z,37.67
2023-06-19T02:28:11.443Z,37.41
2023-06-19T02:30:38.866Z,36.97
2023-06-19T02:33:06.380Z,36.38
2023-06-19T02:35:34.087Z,36.31
2023-06-19T02:38:01.507Z,35.43
2023-06-19T02:40:28.927Z,35.14
2023-06-19T02:42:56.369Z,35.28
2023-06-19T02:45:23.837Z,34.75
2023-06-19T02:47:53.424Z,34.54
2023-06-19T02:50:21.254Z,34.16
2023-06-19T02:52:48.912Z,34.04
2023-06-19T02:55:16.307Z,33.95
2023-06-19T02:57:43.742Z,33.51
2023-06-19T03:00:13.411Z,33.50
2023-06-19T03:02:44.560Z,33.73
2023-06-19T03:05:16.318Z,33.22
2023-06-19T03:07:44.029Z,33.18
2023-06-19T03:10:11.651Z,33.42
2023-06-19T03:12:38.912Z,33.04
2023-06-19T03:15:06.865Z,33.07
2023-06-19T03:17:37.362Z,32.92
2023-06-19T03:20:10.722Z,33.39
2023-06-19T03:22:38.245Z,32.81
2023-06-19T03:25:05.936Z,32.93
2023-06-19T03:27:33.562Z,33.06
2023-06-19T03:30:02.423Z,33.17
2023-06-19T03:32:38.306Z,32.93
2023-06-19T03:35:09.408Z,32.97
2023-06-19T03:37:41.730Z,32.71
2023-06-19T03:40:14.674Z,32.32
2023-06-19T03:42:44.551Z,32.65
2023-06-19T03:45:13.683Z,32.33
2023-06-19T03:47:41.176Z,32.06
2023-06-19T03:50:20.653Z,32.15
2023-06-19T03:52:58.377Z,32.26
2023-06-19T03:55:26.040Z,32.17
2023-06-19T03:57:54.294Z,31.85
2023-06-19T04:00:24.071Z,31.93
2023-06-19T04:02:52.794Z,31.76
2023-06-19T04:05:21.118Z,31.52
2023-06-19T04:07:48.689Z,31.67
2023-06-19T04:10:16.701Z,31.45
2023-06-19T04:12:46.696Z,31.40
2023-06-19T04:15:14.124Z,31.10
2023-06-19T04:17:41.601Z,31.09
2023-06-19T04:20:20.707Z,31.40
2023-06-19T04:22:48.990Z,30.98
2023-06-19T04:25:16.317Z,30.47
2023-06-19T04:27:46.083Z,30.64
2023-06-19T04:30:13.886Z,30.46
2023-06-19T04:32:42.312Z,29.81
2023-06-19T04:35:10.862Z,28.96
2023-06-19T04:37:38.678Z,29.13
2023-06-19T04:40:08.494Z,29.13
2023-06-19T04:42:35.971Z,28.90
2023-06-19T04:45:03.613Z,29.06
2023-06-19T04:47:43.555Z,28.95
2023-06-19T04:50:18.970Z,28.94
2023-06-19T04:52:48.757Z,28.85
2023-06-19T04:55:16.153Z,29.06
2023-06-19T04:57:43.552Z,29.17
2023-06-19T05:00:14.076Z,28.91
2023-06-19T05:02:45.364Z,28.87
2023-06-19T05:05:12.914Z,28.70
2023-06-19T05:07:40.988Z,28.84
2023-06-19T05:10:09.188Z,28.80
2023-06-19T05:12:36.977Z,28.63
2023-06-19T05:15:05.105Z,28.45
2023-06-19T05:17:33.918Z,28.30
2023-06-19T05:20:02.712Z,28.49
2023-06-19T05:22:33.455Z,28.05
2023-06-19T05:25:02.664Z,28.21
2023-06-19T05:27:31.931Z,28.19
2023-06-19T05:30:00.741Z,28.17
2023-06-19T05:32:29.225Z,27.75
2023-06-19T05:34:56.666Z,27.86
2023-06-19T05:37:23.954Z,28.03
2023-06-19T05:39:53.135Z,27.85
2023-06-19T05:42:20.592Z,27.86
2023-06-19T05:44:48.172Z,28.15
2023-06-19T05:47:18.382Z,27.81
2023-06-19T05:49:45.802Z,27.61
2023-06-19T05:52:13.619Z,27.43
2023-06-19T05:54:41.259Z,27.60
2023-06-19T05:57:08.912Z,27.50
2023-06-19T05:59:36.210Z,27.42
2023-06-19T06:02:05.118Z,27.17
2023-06-19T06:04:34.081Z,27.14
2023-06-19T06:07:02.118Z,27.16
2023-06-19T06:09:29.669Z,26.86
2023-06-19T06:11:57.204Z,27.29
2023-06-19T06:14:24.777Z,26.78
2023-06-19T06:16:52.096Z,27.00
2023-06-19T06:19:22.597Z,27.00
2023-06-19T06:21:51.028Z,26.95
2023-06-19T06:24:19.825Z,27.08
2023-06-19T06:26:48.339Z,27.06
2023-06-19T06:29:16.725Z,26.89
2023-06-19T06:31:49.094Z,27.24
2023-06-19T06:34:16.408Z,26.97
2023-06-19T06:36:52.848Z,27.12
2023-06-19T06:39:29.656Z,27.13
2023-06-19T06:41:57.529Z,27.34
2023-06-19T06:44:25.000Z,27.04
2023-06-19T06:46:52.952Z,27.46
2023-06-19T06:49:20.384Z,27.36
2023-06-19T06:51:47.965Z,27.39
2023-06-19T06:54:15.535Z,27.33
2023-06-19T06:56:43.449Z,27.18
2023-06-19T06:59:10.834Z,27.42
2023-06-19T07:01:38.871Z,27.35
2023-06-19T07:04:06.342Z,27.42
2023-06-19T07:06:33.699Z,27.05
2023-06-19T07:09:02.137Z,27.42
2023-06-19T07:11:29.606Z,27.13
2023-06-19T07:13:57.099Z,27.40
2023-06-19T07:16:24.668Z,27.33
2023-06-19T07:18:53.367Z,27.08
2023-06-19T07:21:21.549Z,26.97
2023-06-19T07:23:49.583Z,26.92
2023-06-19T07:26:17.236Z,27.41
2023-06-19T07:28:46.457Z,27.63
2023-06-19T07:31:14.964Z,27.84
2023-06-19T07:33:42.728Z,27.49
2023-06-19T07:36:15.339Z,27.93
2023-06-19T07:38:47.496Z,27.56
2023-06-19T07:41:14.957Z,27.87
2023-06-19T07:43:48.216Z,27.44
2023-06-19T07:46:17.164Z,27.75
2023-06-19T07:48:44.789Z,28.08
2023-06-19T07:51:12.539Z,27.69
2023-06-19T07:53:41.523Z,27.87
2023-06-19T07:56:09.934Z,27.62
2023-06-19T07:58:38.491Z,27.73
2023-06-19T08:01:06.381Z,27.71
2023-06-19T08:03:35.086Z,27.83
2023-06-19T08:06:03.695Z,27.83
2023-06-19T08:08:31.403Z,28.11
2023-06-19T08:10:58.823Z,27.61
2023-06-19T08:13:26.699Z,27.58
2023-06-19T08:15:54.478Z,27.30
2023-06-19T08:18:22.306Z,27.56
2023-06-19T08:20:50.071Z,27.52
2023-06-19T08:23:17.515Z,27.18
2023-06-19T08:25:46.319Z,26.90
2023-06-19T08:28:14.829Z,27.30
2023-06-19T08:30:44.039Z,27.09
2023-06-19T08:33:12.004Z,27.26
2023-06-19T08:35:39.897Z,27.81
2023-06-19T08:38:08.596Z,27.45
2023-06-19T08:40:36.320Z,27.14
2023-06-19T08:43:04.492Z,27.19
2023-06-19T08:45:31.902Z,27.06
2023-06-19T08:48:00.723Z,26.53
2023-06-19T08:50:28.456Z,26.71
2023-06-19T08:52:57.125Z,26.90
2023-06-19T08:55:29.273Z,26.47
2023-06-19T08:57:57.268Z,26.44
2023-06-19T09:00:30.623Z,26.58
2023-06-19T09:03:14.029Z,26.71
2023-06-19T09:05:51.652Z,26.38
2023-06-19T09:08:21.267Z,26.28
2023-06-19T09:11:02.194Z,25.42
2023-06-19T09:13:30.933Z,25.39
2023-06-19T09:16:03.488Z,25.81
2023-06-19T09:18:48.597Z,26.04
2023-06-19T09:21:25.274Z,26.15
2023-06-19T09:23:56.136Z,26.49
2023-06-19T09:26:31.824Z,26.27
2023-06-19T09:28:59.534Z,26.42
2023-06-19T09:31:35.258Z,26.65
2023-06-19T09:34:03.619Z,26.54
2023-06-19T09:36:33.835Z,26.77
2023-06-19T09:39:03.372Z,26.40
2023-06-19T09:41:32.141Z,26.31
2023-06-19T09:44:01.555Z,26.24
2023-06-19T09:46:34.980Z,26.33
2023-06-19T09:49:05.085Z,26.51
2023-06-19T09:51:36.949Z,26.35
2023-06-19T09:54:06.158Z,26.27
2023-06-19T09:56:34.332Z,26.15
2023-06-19T09:59:02.459Z,26.16
2023-06-19T10:01:33.500Z,26.29
2023-06-19T10:04:12.832Z,25.94
2023-06-19T10:06:48.357Z,26.06
2023-06-19T10:09:19.762Z,26.54
2023-06-19T10:11:54.151Z,26.36
2023-06-19T10:14:22.883Z,25.89
2023-06-19T10:16:50.595Z,26.20
2023-06-19T10:19:22.704Z,26.49
2023-06-19T10:21:56.682Z,26.08
2023-06-19T10:24:26.039Z,26.23
2023-06-19T10:27:12.292Z,26.66
2023-06-19T10:29:41.771Z,26.46
2023-06-19T10:32:14.948Z,26.18
2023-06-19T10:34:47.029Z,25.87
2023-06-19T10:37:15.360Z,26.07
2023-06-19T10:39:42.803Z,26.04
2023-06-19T10:42:11.569Z,26.05
2023-06-19T10:44:39.715Z,26.03
2023-06-19T10:47:08.889Z,26.54
2023-06-19T10:49:37.302Z,26.54
2023-06-19T10:52:05.211Z,26.87
2023-06-19T10:54:33.741Z,26.27
2023-06-19T10:57:06.206Z,25.48
2023-06-19T10:59:36.217Z,25.39
2023-06-19T11:02:03.949Z,25.74
2023-06-19T11:04:32.635Z,25.63
2023-06-19T11:07:06.705Z,25.69
2023-06-19T11:09:34.247Z,25.63
2023-06-19T11:12:02.729Z,25.51
2023-06-19T11:14:31.745Z,25.79
2023-06-19T11:17:01.713Z,25.40
2023-06-19T11:19:32.113Z,25.29
2023-06-19T11:21:59.710Z,25.58
2023-06-19T11:24:27.094Z,24.81
2023-06-19T11:26:57.277Z,24.84
2023-06-19T11:29:27.199Z,25.08
2023-06-19T11:32:07.037Z,24.83
2023-06-19T11:34:38.343Z,24.52
2023-06-19T11:37:26.889Z,24.34
2023-06-19T11:39:55.464Z,24.16
2023-06-19T11:42:22.952Z,24.69
2023-06-19T11:45:08.016Z,24.31
2023-06-19T11:47:36.309Z,24.37
2023-06-19T11:50:06.488Z,24.48
2023-06-19T11:52:35.262Z,24.50
2023-06-19T11:55:06.448Z,24.41
2023-06-19T11:57:34.745Z,23.28
2023-06-19T12:00:02.944Z,23.30
2023-06-19T12:02:40.787Z,23.47
2023-06-19T12:05:11.758Z,23.22
2023-06-19T12:07:40.592Z,23.70
2023-06-19T12:10:12.894Z,24.00
2023-06-19T12:12:40.301Z,23.92
2023-06-19T12:15:08.400Z,24.16
2023-06-19T12:17:37.424Z,23.90
2023-06-19T12:20:10.667Z,23.89
2023-06-19T12:22:39.782Z,23.09
2023-06-19T12:25:07.803Z,23.19
2023-06-19T12:27:37.852Z,23.17
2023-06-19T12:30:06.441Z,22.82
2023-06-19T12:32:36.232Z,23.15
2023-06-19T12:35:04.550Z,23.26
2023-06-19T12:37:34.965Z,23.19
2023-06-19T12:40:02.660Z,23.02
2023-06-19T12:42:35.442Z,23.40
2023-06-19T12:45:03.088Z,23.43
2023-06-19T12:47:34.462Z,23.56
2023-06-19T12:50:03.343Z,23.66
2023-06-19T12:52:32.928Z,23.41
2023-06-19T12:55:03.241Z,23.44
2023-06-19T12:57:35.656Z,23.43
2023-06-19T13:00:03.517Z,23.55
2023-06-19T13:02:35.484Z,23.59
2023-06-19T13:05:03.264Z,24.06
2023-06-19T13:07:34.654Z,24.29
2023-06-19T13:10:01.934Z,24.57
2023-06-19T13:12:31.260Z,24.40
2023-06-19T13:14:58.694Z,24.20
2023-06-19T13:17:26.043Z,24.14
2023-06-19T13:19:53.410Z,24.42
2023-06-19T13:22:22.911Z,24.40
2023-06-19T13:24:52.297Z,24.98
2023-06-19T13:27:20.296Z,25.23
2023-06-19T13:29:48.789Z,24.59
2023-06-19T13:32:17.917Z,24.39
2023-06-19T13:34:45.411Z,24.33
2023-06-19T13:37:12.786Z,24.46
2023-06-19T13:39:41.070Z,24.68
2023-06-19T13:42:08.834Z,24.57
2023-06-19T13:44:36.759Z,24.92
2023-06-19T13:47:06.124Z,23.82
2023-06-19T13:49:33.563Z,24.29
2023-06-19T13:52:01.492Z,24.20
2023-06-19T13:54:29.314Z,23.83
2023-06-19T13:56:56.700Z,24.07
2023-06-19T13:59:24.208Z,23.91
2023-06-19T14:01:51.478Z,24.20
2023-06-19T14:04:18.759Z,23.81
2023-06-19T14:06:46.053Z,23.99
2023-06-19T14:09:14.279Z,23.63
2023-06-19T14:11:41.668Z,23.55
2023-06-19T14:14:09.073Z,23.65
2023-06-19T14:16:38.693Z,23.52
2023-06-19T14:19:07.580Z,23.38
2023-06-19T14:21:36.324Z,23.64
2023-06-19T14:24:04.568Z,23.19
2023-06-19T14:26:31.959Z,23.45
2023-06-19T14:29:00.256Z,23.00
2023-06-19T14:31:27.856Z,23.04
2023-06-19T14:33:55.412Z,23.44
2023-06-19T14:36:23.018Z,23.64
2023-06-19T14:38:50.744Z,23.09
2023-06-19T14:41:18.168Z,23.36
2023-06-19T14:43:45.484Z,22.59
2023-06-19T14:46:18.044Z,22.98
2023-06-19T14:48:50.619Z,22.88
2023-06-19T14:51:17.878Z,22.68
2023-06-19T14:53:45.275Z,22.96
2023-06-19T14:56:13.049Z,22.78
2023-06-19T14:58:40.554Z,22.61
2023-06-19T15:01:08.051Z,22.70
2023-06-19T15:03:36.066Z,22.80
2023-06-19T15:06:05.029Z,23.04
2023-06-19T15:08:32.848Z,22.50
2023-06-19T15:11:00.619Z,22.48
2023-06-19T15:13:28.083Z,22.66
2023-06-19T15:15:55.559Z,22.71
2023-06-19T15:18:23.125Z,22.14
2023-06-19T15:20:50.578Z,22.26
2023-06-19T15:23:19.252Z,21.97
2023-06-19T15:25:46.748Z,22.27
2023-06-19T15:28:14.006Z,22.10
2023-06-19T15:30:41.368Z,22.31
2023-06-19T15:33:08.632Z,22.04
2023-06-19T15:35:36.165Z,22.07
2023-06-19T15:38:03.550Z,22.10
2023-06-19T15:40:30.849Z,22.05
2023-06-19T15:42:58.167Z,22.31
2023-06-19T15:45:25.494Z,22.55
2023-06-19T15:47:53.801Z,22.43
2023-06-19T15:50:21.337Z,23.07
2023-06-19T15:52:48.591Z,23.31
2023-06-19T15:55:16.027Z,23.53
2023-06-19T15:57:43.311Z,22.83
2023-06-19T16:00:12.499Z,22.70
2023-06-19T16:02:48.802Z,22.91
2023-06-19T16:05:19.148Z,22.21
2023-06-19T16:07:46.537Z,22.44
2023-06-19T16:10:15.904Z,22.68
2023-06-19T16:12:43.384Z,22.73
2023-06-19T16:15:14.276Z,22.89
2023-06-19T16:17:41.893Z,23.08
2023-06-19T16:20:10.161Z,23.31
2023-06-19T16:22:37.664Z,23.50
2023-06-19T16:25:05.350Z,23.59
2023-06-19T16:27:32.704Z,23.51
2023-06-19T16:30:00.089Z,23.47
2023-06-19T16:32:27.497Z,23.36
2023-06-19T16:34:54.718Z,23.30
2023-06-19T16:37:22.020Z,23.72
2023-06-19T16:39:49.333Z,24.01
2023-06-19T16:42:16.951Z,24.28
2023-06-19T16:44:44.316Z,24.60
2023-06-19T16:47:11.746Z,24.66
2023-06-19T16:49:39.013Z,24.95
2023-06-19T16:52:07.066Z,24.96
2023-06-19T16:54:34.520Z,25.22
2023-06-19T16:57:01.933Z,25.56
2023-06-19T16:59:29.315Z,25.52
2023-06-19T17:01:56.782Z,25.64
2023-06-19T17:04:24.143Z,25.67
2023-06-19T17:06:51.446Z,25.80
2023-06-19T17:09:18.722Z,26.08
2023-06-19T17:11:46.166Z,26.30
2023-06-19T17:14:13.620Z,26.58
2023-06-19T17:16:43.703Z,26.72
2023-06-19T17:19:11.056Z,26.36
2023-06-19T17:21:38.459Z,26.75
2023-06-19T17:24:06.112Z,26.45
2023-06-19T17:26:33.669Z,26.92
2023-06-19T17:29:02.392Z,27.03
2023-06-19T17:31:29.831Z,27.03
2023-06-19T17:33:57.243Z,26.94
2023-06-19T17:36:24.616Z,27.08
2023-06-19T17:38:52.043Z,26.95
2023-06-19T17:41:19.402Z,26.88
2023-06-19T17:43:46.852Z,27.38
2023-06-19T17:46:14.369Z,27.18
2023-06-19T17:48:42.900Z,27.40
2023-06-19T17:51:10.299Z,27.11
2023-06-19T17:53:37.666Z,27.91
2023-06-19T17:56:06.147Z,28.11
2023-06-19T17:58:33.691Z,28.55
2023-06-19T18:01:01.486Z,28.58
2023-06-19T18:03:29.440Z,28.79
2023-06-19T18:05:56.982Z,29.17
2023-06-19T18:08:24.391Z,29.07
2023-06-19T18:10:51.905Z,29.00
2023-06-19T18:13:19.311Z,28.52
2023-06-19T18:15:55.600Z,28.56
2023-06-19T18:18:30.196Z,28.29
2023-06-19T18:20:57.533Z,28.32
2023-06-19T18:23:25.286Z,28.86
2023-06-19T18:25:52.849Z,28.98
2023-06-19T18:28:20.078Z,29.23
2023-06-19T18:30:47.333Z,29.11
2023-06-19T18:33:14.684Z,29.33
2023-06-19T18:35:41.950Z,29.50
2023-06-19T18:38:09.414Z,29.54
2023-06-19T18:40:36.688Z,29.73
2023-06-19T18:43:03.943Z,30.29
2023-06-19T18:45:31.946Z,30.48
2023-06-19T18:47:59.415Z,30.60
2023-06-19T18:50:27.230Z,31.37
2023-06-19T18:52:55.947Z,31.28
2023-06-19T18:55:23.521Z,31.54
2023-06-19T18:57:52.163Z,31.17
2023-06-19T19:00:19.860Z,31.41
2023-06-19T19:02:47.624Z,31.82
2023-06-19T19:05:15.309Z,31.72
2023-06-19T19:07:42.554Z,31.49
2023-06-19T19:10:11.050Z,31.57
2023-06-19T19:12:38.676Z,31.46
2023-06-19T19:15:07.312Z,31.27
2023-06-19T19:17:34.869Z,31.47
2023-06-19T19:20:07.495Z,31.76
2023-06-19T19:22:35.788Z,31.79
2023-06-19T19:25:03.336Z,31.58
2023-06-19T19:27:34.091Z,31.54
2023-06-19T19:30:02.643Z,31.59
2023-06-19T19:32:32.821Z,31.94
2023-06-19T19:35:00.207Z,32.08
2023-06-19T19:37:30.319Z,32.04
2023-06-19T19:39:58.155Z,32.13
2023-06-19T19:42:26.552Z,32.39
2023-06-19T19:44:54.513Z,32.03
2023-06-19T19:47:22.257Z,32.13
2023-06-19T19:49:49.618Z,31.87
2023-06-19T19:52:17.043Z,32.18
2023-06-19T19:54:44.471Z,32.09
2023-06-19T19:57:11.909Z,32.06
2023-06-19T19:59:39.234Z,31.89
2023-06-19T20:02:11.491Z,32.26
2023-06-19T20:04:39.719Z,32.27
2023-06-19T20:07:07.714Z,32.21
2023-06-19T20:09:35.127Z,32.07
2023-06-19T20:12:20.076Z,32.12
2023-06-19T20:14:49.328Z,32.16
2023-06-19T20:17:17.039Z,32.23
2023-06-19T20:19:44.608Z,32.02
2023-06-19T20:22:12.102Z,31.78
2023-06-19T20:24:39.614Z,32.01
2023-06-19T20:27:08.049Z,31.67
2023-06-19T20:29:35.453Z,31.95
2023-06-19T20:32:02.929Z,31.68
2023-06-19T20:34:30.578Z,32.01
2023-06-19T20:36:58.152Z,32.08
2023-06-19T20:39:26.291Z,32.14
2023-06-19T20:41:53.695Z,32.81
2023-06-19T20:44:21.081Z,32.62
2023-06-19T20:46:49.973Z,33.82
2023-06-19T20:49:17.479Z,34.37
2023-06-19T20:51:44.867Z,35.24
2023-06-19T20:54:12.384Z,35.49
2023-06-19T20:56:39.795Z,35.31
2023-06-19T20:59:07.220Z,35.78
2023-06-19T21:01:34.678Z,36.10
2023-06-19T21:04:03.000Z,35.79
2023-06-19T21:06:31.121Z,36.29
2023-06-19T21:09:00.690Z,36.43
2023-06-19T21:11:28.338Z,36.33
2023-06-19T21:13:55.628Z,36.79
2023-06-19T21:16:23.026Z,37.00
2023-06-19T21:18:50.477Z,37.07
2023-06-19T21:21:17.914Z,36.90
2023-06-19T21:23:45.331Z,36.81
2023-06-19T21:26:14.541Z,36.85
2023-06-19T21:28:41.959Z,37.09
2023-06-19T21:31:09.431Z,37.08
2023-06-19T21:33:39.284Z,37.00
2023-06-19T21:36:06.921Z,37.46
2023-06-19T21:38:35.535Z,37.44
2023-06-19T21:41:03.636Z,37.87
2023-06-19T21:43:31.102Z,38.02
2023-06-19T21:45:59.837Z,37.85
2023-06-19T21:48:27.648Z,37.94
2023-06-19T21:50:55.207Z,38.06
2023-06-19T21:53:22.898Z,37.95
2023-06-19T21:55:50.205Z,38.95
2023-06-19T21:58:17.521Z,38.51
2023-06-19T22:00:44.898Z,38.73
2023-06-19T22:03:12.410Z,38.95
2023-06-19T22:05:40.094Z,39.08
2023-06-19T22:08:07.754Z,38.80
2023-06-19T22:10:35.108Z,38.42
2023-06-19T22:13:02.589Z,38.72
2023-06-19T22:15:29.982Z,38.39
2023-06-19T22:17:57.533Z,38.26
2023-06-19T22:20:25.204Z,38.33
2023-06-19T22:22:52.880Z,38.62
2023-06-19T22:25:20.223Z,38.70
2023-06-19T22:27:49.337Z,38.69
2023-06-19T22:30:17.170Z,38.61
2023-06-19T22:32:44.662Z,38.80
2023-06-19T22:35:12.148Z,38.40
2023-06-19T22:37:40.324Z,38.53
2023-06-19T22:40:11.392Z,38.20
2023-06-19T22:42:39.483Z,38.20
2023-06-19T22:45:08.038Z,37.78
2023-06-19T22:47:39.944Z,38.20
2023-06-19T22:50:09.354Z,38.45
2023-06-19T22:52:37.140Z,38.12
2023-06-19T22:55:05.514Z,38.08
2023-06-19T22:57:36.597Z,38.22
2023-06-19T23:00:13.544Z,38.64
2023-06-19T23:02:43.497Z,38.45
2023-06-19T23:05:12.791Z,38.46
2023-06-19T23:07:42.385Z,38.23
2023-06-19T23:10:10.098Z,38.34
2023-06-19T23:12:38.535Z,38.62
2023-06-19T23:15:08.379Z,38.84
2023-06-19T23:17:37.796Z,38.28
2023-06-19T23:20:11.076Z,38.46
2023-06-19T23:22:39.165Z,38.43
2023-06-19T23:25:06.803Z,39.01
2023-06-19T23:27:37.050Z,38.35
2023-06-19T23:30:05.617Z,38.34
2023-06-19T23:32:33.670Z,38.23
2023-06-19T23:35:01.276Z,38.57
2023-06-19T23:37:31.075Z,38.29
2023-06-19T23:39:58.531Z,38.20
2023-06-19T23:42:26.002Z,38.27
2023-06-19T23:44:53.468Z,38.45
2023-06-19T23:47:21.122Z,38.24
2023-06-19T23:49:49.387Z,38.37
2023-06-19T23:52:21.704Z,38.25
2023-06-19T23:54:54.380Z,38.29
2023-06-19T23:57:21.806Z,38.24
2023-06-19T23:59:49.234Z,38.41
